DXB weather

Dubai International Airport
Dubai, Dubai Emirate, United Arab Emirates

Public forecast

Using degrees Celsius for public forecast. Weather courtesy of forecast.io.

Current aviation weather report (METAR) for Dubai International Airport

Retrieved 2019/10/23 01:00 UTC (6 minutes ago):

OMDB 230100Z 18003KT 130V210 4000 HZ NSC 28/25 Q1010 TEMPO 2000 BR

Aviation forecast (TAF) for Dubai International Airport

Retrieved 2019-10-23 00:00 UTC (1 hour ago):

TAF OMDB 222257Z 2300/2406 08005KT 6000 FEW020 PROB30 2300/2305 3000 BR BKN008 BECMG 2308/2310 35013KT BECMG 2316/2318 08005KT PROB30 2323/2405 4000 HZ